logo
Search for airport 
image banner adimage banner adimage banner ad
image banner ad

MMENT - La Encantada

Located in Melchor Ocampo, Mexico

ICAO - , IATA -

Data provided by Airmate  

General information

Coordinates: N28°24'36" W102°36'52"
Elevation is 4265 feet MSL.
Magnetic variation is 5° East
View others Airports in Coahuila

Operational data

Special qualification required
Current time UTC:
Current local time:
Weather at : - ( 0 km )
METAR: ROTM 180656Z COR 35012KT 9999 BKN028 24/18 A2978 RMK SLP861 WND WRNG CANC XWND ADV T02440183
View NOTAMs / SUP AIP / TFR affecting this airport [VIEW]
Communications frequencies: [VIEW]

Runways:

RWY identifierQFULength (ft)Width (ft)SurfaceLDA (ft)
32327°388740ASPH
14147°388740ASPH

Airport contact information

Address: Melchor Ocampo Mexico

Satellite view of MMENT